Time;durP1;ratioP1;P1;durP2;ratioP2;P2;SDS_P1;SDS_P2;PMS_P1;PMS_P2;Temp;Humidity;BMP_temperature;BMP_pressure;BME280_temperature;BME280_humidity;BME280_pressure;Samples;Min_cycle;Max_cycle;Signal;HPM_P1;HPM_P2
2023/02/12 00:01:33;;;;;;;116.57;109.67;;;6.70;96.90;;;;;;5015763;28;20197;-87
2023/02/12 00:03:59;;;;;;;114.87;107.33;;;6.70;96.90;;;;;;5015333;28;20347;-86
2023/02/12 00:06:25;;;;;;;122.60;114.97;;;6.70;96.90;;;;;;5014691;28;20643;-86
2023/02/12 00:08:52;;;;;;;122.80;115.60;;;6.70;96.90;;;;;;5014589;28;20640;-86
2023/02/12 00:11:21;;;;;;;119.20;111.77;;;6.70;96.90;;;;;;5015712;28;20193;-86
2023/02/12 00:13:47;;;;;;;123.93;116.40;;;6.60;96.90;;;;;;5014513;28;20600;-87
2023/02/12 00:16:15;;;;;;;126.23;118.57;;;6.60;96.90;;;;;;5014369;28;20220;-86
2023/02/12 00:18:42;;;;;;;126.20;118.27;;;6.60;96.90;;;;;;5014227;28;20264;-87
2023/02/12 00:21:08;;;;;;;124.93;117.40;;;6.60;96.90;;;;;;5014153;28;20204;-87
2023/02/12 00:23:34;;;;;;;131.90;123.87;;;6.70;96.90;;;;;;5014106;28;20201;-86
2023/02/12 00:26:03;;;;;;;135.43;127.43;;;6.70;96.90;;;;;;5015531;28;20620;-87
2023/02/12 00:28:29;;;;;;;136.97;128.97;;;6.60;96.90;;;;;;5015591;28;20173;-87
2023/02/12 00:30:54;;;;;;;139.37;130.57;;;6.60;96.90;;;;;;5014045;28;20566;-87
2023/02/12 00:33:20;;;;;;;138.80;130.47;;;6.60;96.90;;;;;;5014186;28;20188;-86
2023/02/12 00:35:54;;;;;;;142.63;133.43;;;6.50;96.80;;;;;;5015314;28;20181;-87
2023/02/12 00:38:20;;;;;;;141.20;132.70;;;6.50;96.90;;;;;;5014444;28;20635;-86
2023/02/12 00:40:45;;;;;;;134.63;126.23;;;6.50;96.80;;;;;;5015126;28;20260;-86
2023/02/12 00:43:11;;;;;;;140.77;132.10;;;6.60;96.90;;;;;;5013922;28;20208;-86
2023/02/12 00:45:36;;;;;;;134.57;126.27;;;6.50;96.90;;;;;;5013688;28;20268;-87
2023/02/12 00:48:03;;;;;;;137.93;129.73;;;6.50;96.90;;;;;;5014302;28;20658;-87
2023/02/12 00:50:29;;;;;;;140.23;131.37;;;6.50;96.80;;;;;;5013862;28;20173;-87
2023/02/12 00:52:54;;;;;;;143.57;134.90;;;6.50;96.90;;;;;;5014034;28;20200;-87
2023/02/12 00:55:20;;;;;;;138.43;130.07;;;6.50;96.90;;;;;;5015443;28;20181;-87
2023/02/12 00:57:45;;;;;;;145.10;136.37;;;6.50;96.80;;;;;;5015091;28;20177;-87
2023/02/12 01:00:12;;;;;;;146.23;137.47;;;6.50;96.80;;;;;;5014048;28;20228;-87
2023/02/12 01:02:38;;;;;;;144.33;135.80;;;6.60;96.80;;;;;;5013914;28;20209;-87
2023/02/12 01:05:03;;;;;;;141.03;132.73;;;6.60;96.80;;;;;;5013889;28;20602;-87
2023/02/12 01:07:29;;;;;;;148.33;138.83;;;6.50;96.80;;;;;;5015484;28;20228;-86
2023/02/12 01:09:54;;;;;;;143.90;134.87;;;6.50;96.80;;;;;;5013857;28;20174;-87
2023/02/12 01:12:20;;;;;;;145.27;136.87;;;6.50;96.80;;;;;;5013018;28;20197;-86
2023/02/12 01:14:45;;;;;;;144.90;136.80;;;6.50;96.80;;;;;;5014571;28;20666;-88
2023/02/12 01:17:11;;;;;;;142.17;134.13;;;6.50;96.80;;;;;;5015034;28;20181;-87
2023/02/12 01:19:36;;;;;;;144.07;135.83;;;6.50;96.80;;;;;;5013651;28;20193;-87
2023/02/12 01:22:02;;;;;;;145.37;136.83;;;6.50;96.80;;;;;;5013299;28;20267;-87
2023/02/12 01:24:27;;;;;;;149.30;140.60;;;6.50;96.80;;;;;;5013732;28;20598;-87
2023/02/12 01:26:53;;;;;;;144.23;135.97;;;6.50;96.80;;;;;;5013629;28;20204;-87
2023/02/12 01:29:19;;;;;;;144.27;136.13;;;6.40;96.70;;;;;;5013487;28;20173;-87
2023/02/12 01:31:44;;;;;;;139.93;132.00;;;6.40;96.80;;;;;;5014635;28;20247;-87
2023/02/12 01:34:10;;;;;;;142.70;134.63;;;6.40;96.70;;;;;;5013906;28;20228;-87
2023/02/12 01:36:36;;;;;;;138.63;130.63;;;6.40;96.70;;;;;;5014884;28;20293;-88
2023/02/12 01:39:03;;;;;;;136.83;128.83;;;6.50;96.70;;;;;;5013766;28;20213;-89
2023/02/12 01:41:32;;;;;;;142.50;134.33;;;6.50;96.70;;;;;;5013394;28;20287;-87
2023/02/12 01:44:12;;;;;;;143.10;134.73;;;6.50;96.70;;;;;;5013328;28;20232;-87
2023/02/12 01:46:38;;;;;;;141.47;133.53;;;6.50;96.70;;;;;;5014689;28;20168;-88
2023/02/12 01:49:08;;;;;;;138.57;130.60;;;6.50;96.80;;;;;;5014438;28;20261;-87
2023/02/12 01:51:34;;;;;;;143.47;135.23;;;6.50;96.80;;;;;;5012873;28;20225;-88
2023/02/12 01:54:04;;;;;;;143.47;135.17;;;6.50;96.70;;;;;;5014384;28;20628;-87
2023/02/12 01:56:31;;;;;;;143.20;135.00;;;6.50;96.70;;;;;;5013316;28;20565;-87
2023/02/12 01:58:56;;;;;;;142.93;134.43;;;6.50;96.70;;;;;;5013158;28;20561;-87
2023/02/12 02:01:25;;;;;;;147.30;138.53;;;6.50;96.70;;;;;;5014101;28;20205;-87
2023/02/12 02:04:01;;;;;;;146.23;137.70;;;6.50;96.70;;;;;;5013098;28;20207;-87
2023/02/12 02:06:32;;;;;;;144.23;136.00;;;6.50;96.70;;;;;;5013286;28;20522;-88
2023/02/12 02:08:58;;;;;;;141.27;132.80;;;6.50;96.70;;;;;;5014036;28;20185;-87
2023/02/12 02:17:36;;;;;;;144.80;136.40;;;6.50;96.70;;;;;;5009678;28;20192;-87
2023/02/12 02:20:24;;;;;;;133.97;126.07;;;6.40;96.70;;;;;;5013008;28;20711;-88
2023/02/12 02:23:20;;;;;;;139.13;130.53;;;6.40;96.70;;;;;;5015393;28;20213;-88
2023/02/12 02:26:06;;;;;;;139.53;131.23;;;6.50;96.70;;;;;;5018088;28;20192;-87
2023/02/12 02:28:46;;;;;;;139.57;131.37;;;6.50;96.70;;;;;;4978349;28;20189;-87
2023/02/12 02:31:34;;;;;;;135.37;127.10;;;6.50;96.70;;;;;;5017001;28;20276;-89
2023/02/12 02:34:07;;;;;;;140.73;132.30;;;6.50;96.70;;;;;;5016873;28;20181;-87
2023/02/12 02:36:40;;;;;;;143.10;134.53;;;6.40;96.70;;;;;;5016566;28;20185;-87
2023/02/12 02:39:14;;;;;;;141.80;133.40;;;6.40;96.70;;;;;;5016249;28;20654;-87
2023/02/12 02:41:58;;;;;;;144.77;135.97;;;6.40;96.70;;;;;;5017480;28;20203;-87
2023/02/12 02:44:42;;;;;;;145.33;136.70;;;6.40;96.70;;;;;;5017320;28;20273;-87
2023/02/12 02:47:12;;;;;;;150.60;140.77;;;6.40;96.70;;;;;;5017426;28;20216;-87
2023/02/12 02:49:47;;;;;;;149.10;139.20;;;6.40;96.70;;;;;;5017824;28;20178;-88
2023/02/12 02:52:17;;;;;;;147.67;137.63;;;6.50;96.70;;;;;;5017765;28;20212;-87
2023/02/12 02:54:48;;;;;;;146.40;136.93;;;6.50;96.70;;;;;;5017747;28;20181;-87
2023/02/12 02:57:28;;;;;;;149.33;138.23;;;6.50;96.70;;;;;;5016054;28;20199;-88
2023/02/12 03:00:02;;;;;;;148.50;138.10;;;6.50;96.70;;;;;;5017558;28;20157;-87
2023/02/12 03:02:31;;;;;;;149.20;138.87;;;6.50;96.70;;;;;;5016085;28;20210;-87
2023/02/12 03:05:16;;;;;;;144.80;134.87;;;6.50;96.70;;;;;;5017262;28;20616;-88
2023/02/12 03:07:57;;;;;;;140.93;131.87;;;6.50;96.70;;;;;;5015987;28;20170;-88
2023/02/12 03:10:29;;;;;;;150.73;140.83;;;6.60;96.80;;;;;;5015933;28;20192;-88
2023/02/12 03:13:17;;;;;;;156.47;143.43;;;6.60;96.80;;;;;;5017155;28;20200;-88
2023/02/12 03:15:50;;;;;;;150.80;140.37;;;6.50;96.70;;;;;;5016168;28;20181;-88
2023/02/12 03:18:25;;;;;;;161.43;146.87;;;6.60;96.80;;;;;;5017120;28;20173;-87
2023/02/12 03:20:59;;;;;;;161.97;147.17;;;6.60;96.80;;;;;;5017085;28;20260;-88
2023/02/12 03:23:29;;;;;;;165.67;152.60;;;6.60;96.80;;;;;;5015617;28;20279;-87
2023/02/12 03:26:02;;;;;;;158.03;143.80;;;6.60;96.80;;;;;;5015796;28;20200;-87
2023/02/12 03:28:33;;;;;;;160.00;146.83;;;6.60;96.80;;;;;;5015635;28;20220;-87
2023/02/12 03:31:08;;;;;;;157.60;145.27;;;6.60;96.80;;;;;;5015487;28;20288;-88
2023/02/12 03:33:50;;;;;;;163.67;148.50;;;6.60;96.80;;;;;;5016128;28;20188;-88
2023/02/12 03:36:15;;;;;;;164.53;150.33;;;6.70;96.80;;;;;;5015377;28;20205;-88
2023/02/12 03:38:47;;;;;;;164.73;149.80;;;6.60;96.80;;;;;;5015442;28;20182;-87
2023/02/12 03:41:29;;;;;;;166.27;150.40;;;6.60;96.80;;;;;;5015542;28;20205;-87
2023/02/12 03:44:20;;;;;;;163.27;146.23;;;6.60;96.80;;;;;;5015448;28;20642;-87
2023/02/12 03:46:57;;;;;;;166.63;149.70;;;6.60;96.80;;;;;;5015483;28;20165;-87
2023/02/12 03:49:31;;;;;;;157.73;144.03;;;6.60;96.80;;;;;;5017078;28;20158;-87
2023/02/12 03:51:57;;;;;;;174.70;150.20;;;6.60;96.80;;;;;;5015198;28;20197;-88
2023/02/12 03:54:23;;;;;;;203.30;155.03;;;6.70;96.80;;;;;;5016342;28;20177;-87
2023/02/12 03:57:01;;;;;;;181.47;154.40;;;6.60;96.80;;;;;;5016428;28;20181;-87
2023/02/12 03:59:27;;;;;;;189.80;154.87;;;6.60;96.80;;;;;;5015193;28;20177;-87
2023/02/12 04:01:56;;;;;;;165.07;145.80;;;6.60;96.80;;;;;;5014882;28;20201;-88
2023/02/12 04:04:23;;;;;;;166.37;149.60;;;6.60;96.80;;;;;;5015068;28;20745;-88
2023/02/12 04:06:49;;;;;;;211.20;155.60;;;6.60;96.80;;;;;;5016329;28;20173;-88
2023/02/12 04:09:16;;;;;;;175.97;154.67;;;6.60;96.80;;;;;;5014790;28;20281;-88
2023/02/12 04:11:56;;;;;;;238.17;156.40;;;6.70;96.80;;;;;;5014725;28;20201;-87
2023/02/12 04:14:51;;;;;;;271.97;151.20;;;6.60;96.80;;;;;;5016238;28;20165;-88
2023/02/12 04:17:55;;;;;;;189.63;152.30;;;6.70;96.90;;;;;;5015744;28;20638;-88
2023/02/12 04:20:41;;;;;;;233.03;155.73;;;6.70;96.90;;;;;;5014450;28;20225;-88
2023/02/12 04:23:22;;;;;;;250.40;154.03;;;6.60;96.90;;;;;;5015882;28;20209;-87
2023/02/12 04:25:52;;;;;;;286.10;156.43;;;6.60;96.90;;;;;;5015954;28;20181;-87
2023/02/12 04:28:30;;;;;;;170.10;152.03;;;6.60;96.90;;;;;;5014658;28;20173;-88
2023/02/12 04:31:06;;;;;;;209.50;151.50;;;6.60;96.90;;;;;;5014460;28;20200;-88
2023/02/12 04:34:03;;;;;;;231.90;149.87;;;6.60;96.90;;;;;;5014597;28;20659;-88
2023/02/12 04:36:34;;;;;;;307.47;151.33;;;6.60;96.90;;;;;;4977813;28;20666;-88
2023/02/12 04:39:06;;;;;;;238.17;147.43;;;6.60;96.90;;;;;;5014518;28;20169;-86
2023/02/12 04:41:32;;;;;;;181.87;146.10;;;6.60;96.90;;;;;;5015769;28;20681;-87
2023/02/12 04:43:57;;;;;;;190.77;148.60;;;6.60;96.90;;;;;;5015668;28;20197;-88
2023/02/12 04:46:23;;;;;;;253.97;146.23;;;6.60;96.90;;;;;;5013252;28;20170;-87
2023/02/12 04:49:13;;;;;;;199.80;145.47;;;6.60;96.90;;;;;;5015429;28;20170;-87
2023/02/12 04:51:39;;;;;;;263.80;146.33;;;6.60;96.90;;;;;;5015343;28;20273;-88
2023/02/12 04:54:05;;;;;;;193.40;143.17;;;6.60;97.00;;;;;;5015635;28;20640;-89
2023/02/12 04:56:30;;;;;;;162.27;142.50;;;6.60;97.00;;;;;;5015418;28;20706;-88
2023/02/12 04:58:56;;;;;;;213.37;144.63;;;6.60;97.00;;;;;;5015375;28;20640;-88
2023/02/12 05:01:22;;;;;;;284.93;148.90;;;6.60;97.00;;;;;;5015377;28;20252;-88
2023/02/12 05:03:48;;;;;;;162.43;135.00;;;6.60;97.00;;;;;;5015128;28;20197;-88
2023/02/12 05:06:13;;;;;;;310.97;145.47;;;6.60;97.00;;;;;;5015521;28;20264;-87
2023/02/12 05:08:39;;;;;;;318.57;149.73;;;6.60;97.00;;;;;;5013724;28;20185;-87
2023/02/12 05:11:06;;;;;;;258.77;149.17;;;6.60;97.00;;;;;;5013855;28;20201;-87
2023/02/12 05:13:33;;;;;;;251.90;151.30;;;6.60;97.00;;;;;;5015079;28;20209;-88
2023/02/12 05:15:58;;;;;;;347.67;154.60;;;6.60;97.00;;;;;;5013921;28;20177;-87
2023/02/12 05:18:24;;;;;;;307.47;150.67;;;6.60;97.00;;;;;;5013645;28;20181;-88
2023/02/12 05:20:58;;;;;;;160.63;143.53;;;6.60;97.00;;;;;;5015324;28;20181;-88
2023/02/12 05:23:32;;;;;;;290.40;146.70;;;6.60;97.00;;;;;;5013338;28;20205;-87
2023/02/12 05:25:59;;;;;;;282.37;151.90;;;6.60;97.10;;;;;;5013601;28;20563;-87
2023/02/12 05:28:25;;;;;;;184.00;144.43;;;6.60;97.10;;;;;;5014841;28;20173;-87
2023/02/12 05:30:50;;;;;;;221.93;145.03;;;6.70;97.10;;;;;;5014699;28;20526;-87
2023/02/12 05:33:16;;;;;;;199.67;144.67;;;6.70;97.10;;;;;;5013762;28;20185;-87
2023/02/12 05:35:41;;;;;;;312.67;151.13;;;6.60;97.10;;;;;;5013284;28;20296;-89
2023/02/12 05:38:07;;;;;;;354.30;149.00;;;6.60;97.10;;;;;;5013475;28;20669;-87
2023/02/12 05:40:34;;;;;;;297.30;144.27;;;6.60;97.10;;;;;;5015106;28;20180;-87
2023/02/12 05:43:00;;;;;;;299.07;142.23;;;6.60;97.10;;;;;;5013406;28;20236;-87
2023/02/12 05:45:26;;;;;;;211.93;134.53;;;6.60;97.10;;;;;;5013410;28;20181;-87
2023/02/12 05:47:55;;;;;;;325.47;129.97;;;6.70;97.10;;;;;;5013470;28;20565;-88
2023/02/12 05:50:21;;;;;;;317.20;142.40;;;6.60;97.10;;;;;;5013418;28;20651;-87
2023/02/12 05:52:47;;;;;;;244.60;134.90;;;6.70;97.10;;;;;;5013189;28;20193;-88
2023/02/12 05:55:13;;;;;;;372.87;139.93;;;6.70;97.10;;;;;;5013270;28;20189;-87
2023/02/12 05:57:38;;;;;;;355.80;139.73;;;6.60;97.10;;;;;;5012764;28;20174;-87
2023/02/12 06:00:07;;;;;;;324.63;138.07;;;6.70;97.10;;;;;;5014217;28;20178;-88
2023/02/12 06:02:33;;;;;;;299.07;139.80;;;6.60;97.10;;;;;;5013031;28;20219;-87
2023/02/12 06:04:59;;;;;;;310.37;133.70;;;6.60;97.10;;;;;;5014545;28;20199;-88
2023/02/12 06:07:25;;;;;;;326.40;135.57;;;6.60;97.10;;;;;;5013063;28;20181;-88
2023/02/12 06:09:50;;;;;;;271.70;135.40;;;6.70;97.10;;;;;;5014263;28;20640;-88
2023/02/12 06:12:16;;;;;;;294.13;134.83;;;6.60;97.10;;;;;;5012844;28;20561;-88
2023/02/12 06:14:42;;;;;;;259.40;136.67;;;6.60;97.20;;;;;;5012892;28;20173;-87
2023/02/12 06:17:07;;;;;;;296.53;138.10;;;6.60;97.10;;;;;;5012793;28;20174;-87
2023/02/12 06:19:33;;;;;;;238.57;135.63;;;6.60;97.10;;;;;;5013038;28;20235;-87
2023/02/12 06:21:58;;;;;;;209.40;134.90;;;6.60;97.10;;;;;;5012617;28;20197;-88
2023/02/12 06:24:24;;;;;;;325.00;142.17;;;6.70;97.20;;;;;;5012827;28;20219;-87
2023/02/12 06:26:50;;;;;;;401.93;147.97;;;6.70;97.20;;;;;;5012613;28;20281;-88
2023/02/12 06:29:17;;;;;;;199.90;144.07;;;6.60;97.10;;;;;;5012548;28;20174;-87
2023/02/12 06:31:43;;;;;;;234.03;141.63;;;6.60;97.10;;;;;;5013931;28;20246;-87
2023/02/12 06:34:11;;;;;;;258.23;137.80;;;6.70;97.20;;;;;;5014393;28;20257;-87
2023/02/12 06:36:38;;;;;;;355.03;148.87;;;6.60;97.10;;;;;;5014040;28;20170;-88
2023/02/12 06:39:04;;;;;;;273.63;141.70;;;6.70;97.20;;;;;;5012975;28;20181;-87
2023/02/12 06:41:30;;;;;;;172.30;136.13;;;6.60;97.20;;;;;;5013796;28;20200;-87
2023/02/12 06:43:55;;;;;;;157.90;134.93;;;6.70;97.20;;;;;;5014447;28;20201;-88
2023/02/12 06:46:21;;;;;;;261.43;138.37;;;6.70;97.20;;;;;;5014162;28;20174;-87
2023/02/12 06:48:47;;;;;;;227.63;135.23;;;6.70;97.20;;;;;;5014038;28;20205;-87
2023/02/12 06:51:17;;;;;;;248.40;137.93;;;6.70;97.20;;;;;;5013802;28;20239;-87
2023/02/12 06:53:43;;;;;;;280.70;133.37;;;6.70;97.20;;;;;;5013859;28;20557;-87
2023/02/12 06:56:12;;;;;;;358.30;132.00;;;6.70;97.20;;;;;;5014037;28;20177;-87
2023/02/12 06:58:38;;;;;;;362.40;140.63;;;6.70;97.20;;;;;;5013727;28;20169;-88
2023/02/12 07:01:16;;;;;;;351.03;135.63;;;6.70;97.20;;;;;;5013374;28;20185;-88
2023/02/12 07:03:46;;;;;;;315.80;132.87;;;6.70;97.20;;;;;;5012472;28;20212;-88
2023/02/12 07:06:11;;;;;;;370.30;135.33;;;6.70;97.20;;;;;;5012649;28;20170;-88
2023/02/12 07:08:37;;;;;;;338.87;122.50;;;6.70;97.20;;;;;;5014152;28;20176;-88
2023/02/12 07:11:03;;;;;;;355.80;129.33;;;6.70;97.20;;;;;;5017426;28;20273;-88
2023/02/12 07:13:29;;;;;;;302.90;125.37;;;6.70;97.20;;;;;;5016228;28;20656;-87
2023/02/12 07:15:54;;;;;;;325.27;128.43;;;6.70;97.20;;;;;;5015896;28;20178;-88
2023/02/12 07:18:20;;;;;;;282.97;124.37;;;6.70;97.20;;;;;;5015716;28;20718;-87
2023/02/12 07:20:45;;;;;;;325.07;123.23;;;6.70;97.20;;;;;;5016907;28;20722;-88
2023/02/12 07:23:11;;;;;;;297.67;123.83;;;6.70;97.30;;;;;;5015607;28;20205;-87
2023/02/12 07:25:37;;;;;;;282.87;124.97;;;6.70;97.20;;;;;;5015648;28;20663;-88
2023/02/12 07:28:03;;;;;;;226.37;124.57;;;6.80;97.30;;;;;;5016005;28;20177;-88
2023/02/12 07:30:29;;;;;;;233.33;120.63;;;6.80;97.30;;;;;;5015691;28;20173;-87
2023/02/12 07:32:54;;;;;;;189.20;116.80;;;6.80;97.30;;;;;;5017046;28;20276;-87
2023/02/12 07:35:20;;;;;;;202.53;115.53;;;6.80;97.30;;;;;;5015723;28;20231;-87
2023/02/12 07:37:45;;;;;;;200.43;115.77;;;6.80;97.30;;;;;;5016320;28;20174;-88
2023/02/12 07:40:12;;;;;;;162.23;109.90;;;6.80;97.30;;;;;;5015789;28;20189;-88
2023/02/12 07:42:37;;;;;;;153.63;107.60;;;6.80;97.30;;;;;;5016712;28;20210;-87
2023/02/12 07:45:03;;;;;;;153.57;99.23;;;6.90;97.30;;;;;;5016674;28;20249;-87
2023/02/12 07:47:29;;;;;;;149.70;103.83;;;6.90;97.30;;;;;;5015254;28;20205;-87
2023/02/12 07:49:54;;;;;;;144.87;104.80;;;6.90;97.30;;;;;;5015342;28;20234;-87
2023/02/12 07:52:20;;;;;;;146.57;108.47;;;6.90;97.30;;;;;;5016674;28;20220;-87
2023/02/12 07:54:46;;;;;;;160.00;109.57;;;6.90;97.30;;;;;;5015212;28;20181;-87
2023/02/12 07:57:12;;;;;;;141.13;107.33;;;6.90;97.30;;;;;;5015045;28;20189;-88
2023/02/12 07:59:37;;;;;;;172.47;112.87;;;6.90;97.30;;;;;;5015166;28;20189;-88
2023/02/12 08:02:03;;;;;;;170.07;109.00;;;6.90;97.30;;;;;;5015048;28;20205;-88
2023/02/12 08:04:29;;;;;;;198.63;110.00;;;6.90;97.30;;;;;;5016991;28;20680;-88
2023/02/12 08:06:55;;;;;;;181.57;111.67;;;7.00;97.30;;;;;;5015049;28;20178;-87
2023/02/12 08:09:24;;;;;;;168.97;110.10;;;7.00;97.30;;;;;;5016219;28;20170;-87
2023/02/12 08:11:50;;;;;;;201.63;108.73;;;7.00;97.40;;;;;;5014953;28;20255;-87
2023/02/12 08:14:18;;;;;;;188.63;104.67;;;7.00;97.30;;;;;;5016172;28;20655;-87
2023/02/12 08:16:45;;;;;;;211.73;112.17;;;7.00;97.40;;;;;;5015078;28;20178;-87
2023/02/12 08:19:11;;;;;;;211.43;106.40;;;7.00;97.40;;;;;;5016173;28;20185;-87
2023/02/12 08:21:37;;;;;;;192.17;104.23;;;7.00;97.40;;;;;;5014412;28;20741;-87
2023/02/12 08:24:03;;;;;;;218.87;105.27;;;7.10;97.40;;;;;;5015870;28;20251;-88
2023/02/12 08:26:34;;;;;;;191.90;103.90;;;7.10;97.40;;;;;;5014566;28;20679;-87
2023/02/12 08:29:02;;;;;;;197.53;99.37;;;7.00;97.40;;;;;;5014744;28;20184;-87
2023/02/12 08:31:30;;;;;;;178.83;95.37;;;7.10;97.40;;;;;;5015899;28;20193;-87
2023/02/12 08:33:56;;;;;;;174.50;97.07;;;7.20;97.40;;;;;;5014482;28;20608;-88
2023/02/12 08:36:25;;;;;;;165.70;95.97;;;7.20;97.40;;;;;;5014448;28;20217;-88
2023/02/12 08:38:50;;;;;;;170.23;95.67;;;7.20;97.40;;;;;;5014357;28;20192;-87
2023/02/12 08:41:24;;;;;;;170.00;95.40;;;7.20;97.40;;;;;;5015610;28;20201;-87
2023/02/12 08:43:52;;;;;;;152.90;96.10;;;7.20;97.40;;;;;;5013951;28;20574;-87
2023/02/12 08:46:27;;;;;;;168.37;99.30;;;7.20;97.40;;;;;;5014202;28;20266;-88
2023/02/12 08:49:03;;;;;;;177.33;100.20;;;7.30;97.40;;;;;;5014172;28;20176;-88
2023/02/12 08:51:31;;;;;;;161.93;96.77;;;7.30;97.40;;;;;;5015250;28;20268;-87
2023/02/12 08:53:59;;;;;;;162.00;97.33;;;7.30;97.40;;;;;;5015514;28;20188;-88
2023/02/12 08:56:27;;;;;;;157.30;99.10;;;7.30;97.40;;;;;;5015640;28;20200;-87
2023/02/12 08:58:52;;;;;;;146.37;98.57;;;7.40;97.40;;;;;;5015578;28;20178;-87
2023/02/12 09:01:23;;;;;;;141.10;98.03;;;7.40;97.40;;;;;;5014057;28;20295;-88
2023/02/12 09:03:49;;;;;;;149.60;99.27;;;7.50;97.40;;;;;;5013825;28;20217;-88
2023/02/12 09:06:16;;;;;;;161.20;99.73;;;7.40;97.40;;;;;;5014042;28;20276;-87
2023/02/12 09:08:42;;;;;;;163.57;96.27;;;7.50;97.40;;;;;;5014055;28;20169;-87
2023/02/12 09:11:15;;;;;;;154.63;97.10;;;7.50;97.40;;;;;;5014230;28;20252;-87
2023/02/12 09:13:42;;;;;;;151.80;97.33;;;7.50;97.40;;;;;;5014042;28;20181;-87
2023/02/12 09:16:08;;;;;;;152.47;99.60;;;7.50;97.40;;;;;;5013886;28;20184;-87
2023/02/12 09:18:34;;;;;;;162.33;101.07;;;7.60;97.40;;;;;;5015178;28;20601;-88
2023/02/12 09:21:11;;;;;;;164.37;104.40;;;7.50;97.40;;;;;;5013322;28;20211;-87
2023/02/12 09:23:38;;;;;;;160.53;104.50;;;7.60;97.50;;;;;;5015059;28;20215;-86
2023/02/12 09:26:08;;;;;;;156.03;103.63;;;7.50;97.40;;;;;;5014983;28;20237;-88
2023/02/12 09:28:34;;;;;;;152.90;106.63;;;7.50;97.40;;;;;;5014809;28;20190;-87
2023/02/12 09:31:10;;;;;;;155.00;107.90;;;7.50;97.40;;;;;;5013431;28;20264;-87
2023/02/12 09:33:36;;;;;;;152.10;105.33;;;7.50;97.40;;;;;;5014530;28;20555;-87
2023/02/12 09:36:03;;;;;;;133.90;107.43;;;7.50;97.40;;;;;;5013493;28;20185;-87
2023/02/12 09:38:29;;;;;;;148.30;108.87;;;7.60;97.40;;;;;;5013786;28;20181;-88
2023/02/12 09:41:16;;;;;;;136.07;109.60;;;7.50;97.40;;;;;;5013209;28;20563;-87
2023/02/12 09:43:54;;;;;;;124.00;107.00;;;7.60;97.40;;;;;;5014137;28;20291;-87
2023/02/12 09:46:34;;;;;;;137.77;112.53;;;7.60;97.40;;;;;;5013406;28;20166;-87
2023/02/12 09:49:26;;;;;;;139.50;114.07;;;7.70;97.40;;;;;;5013402;28;20162;-87
2023/02/12 09:51:53;;;;;;;136.90;119.30;;;7.60;97.40;;;;;;5014508;28;20203;-87
2023/02/12 09:54:22;;;;;;;146.47;121.80;;;7.60;97.40;;;;;;5014663;28;20181;-87
2023/02/12 09:56:57;;;;;;;150.60;123.77;;;7.50;97.40;;;;;;5013368;28;20185;-87
2023/02/12 09:59:40;;;;;;;145.30;119.83;;;7.60;97.40;;;;;;5014935;28;20196;-87
2023/02/12 10:02:17;;;;;;;141.33;121.70;;;7.60;97.40;;;;;;5014460;28;20200;-87
2023/02/12 10:04:44;;;;;;;140.10;124.33;;;7.70;97.40;;;;;;5013222;28;20176;-87
2023/02/12 10:07:58;;;;;;;132.80;118.00;;;7.70;97.40;;;;;;5013196;28;20550;-87
2023/02/12 10:10:49;;;;;;;120.57;102.33;;;7.70;97.40;;;;;;4967229;28;20782;-87
2023/02/12 10:13:26;;;;;;;124.07;107.33;;;7.70;97.40;;;;;;5013247;28;20315;-87
2023/02/12 10:16:17;;;;;;;118.23;99.47;;;7.80;97.40;;;;;;5013081;28;20172;-87
2023/02/12 10:19:04;;;;;;;133.07;101.87;;;7.80;97.40;;;;;;5012289;28;20197;-88
2023/02/12 10:21:36;;;;;;;129.67;98.17;;;7.70;97.40;;;;;;5014158;28;20706;-87
2023/02/12 10:24:19;;;;;;;128.90;98.70;;;7.70;97.40;;;;;;5012510;28;20197;-88
2023/02/12 10:26:53;;;;;;;130.23;96.33;;;7.80;97.40;;;;;;5012733;28;20706;-87
2023/02/12 10:29:22;;;;;;;128.83;103.70;;;7.80;97.40;;;;;;5012882;28;20173;-87
2023/02/12 10:31:57;;;;;;;113.97;74.83;;;7.80;97.40;;;;;;5012833;28;20204;-87
2023/02/12 10:34:26;;;;;;;104.43;74.53;;;7.80;97.40;;;;;;5012870;28;20173;-87
2023/02/12 10:37:17;;;;;;;116.10;73.90;;;7.70;97.40;;;;;;5012683;28;20185;-87
2023/02/12 10:39:55;;;;;;;108.80;69.37;;;7.70;97.30;;;;;;4967694;28;20404;-87
2023/02/12 10:42:38;;;;;;;95.70;71.70;;;7.80;97.30;;;;;;5012798;28;20207;-87
2023/02/12 10:45:05;;;;;;;95.30;67.87;;;7.80;97.30;;;;;;5016650;28;20557;-87
2023/02/12 10:47:31;;;;;;;94.23;80.30;;;7.80;97.30;;;;;;5017105;28;20181;-88
2023/02/12 10:50:01;;;;;;;84.70;70.87;;;7.90;97.30;;;;;;5016430;28;20675;-87
2023/02/12 10:52:46;;;;;;;89.97;78.30;;;7.80;97.30;;;;;;5017860;28;20228;-87
2023/02/12 10:55:33;;;;;;;90.00;80.23;;;7.80;97.30;;;;;;5017676;28;20686;-87
2023/02/12 10:58:01;;;;;;;99.57;84.47;;;7.70;97.30;;;;;;5017656;28;20169;-87
2023/02/12 11:00:33;;;;;;;91.23;81.30;;;7.80;97.30;;;;;;5016142;28;20195;-87
2023/02/12 11:03:11;;;;;;;109.43;85.20;;;7.90;97.30;;;;;;5017376;28;20212;-87
2023/02/12 11:05:39;;;;;;;101.43;87.50;;;7.80;97.30;;;;;;5015968;28;20415;-87
2023/02/12 11:08:05;;;;;;;106.53;95.87;;;7.90;97.30;;;;;;5015769;28;20174;-87
2023/02/12 11:10:40;;;;;;;108.00;97.00;;;7.80;97.30;;;;;;5016162;28;20667;-87
2023/02/12 11:13:25;;;;;;;99.20;88.73;;;7.70;97.30;;;;;;5017484;28;20173;-87
2023/02/12 11:15:50;;;;;;;103.63;93.70;;;7.80;97.30;;;;;;5016067;28;20189;-88
2023/02/12 11:18:25;;;;;;;101.07;90.87;;;7.80;97.30;;;;;;5015883;28;20182;-87
2023/02/12 11:20:51;;;;;;;99.10;89.70;;;7.90;97.30;;;;;;5015787;28;20205;-87
2023/02/12 11:23:29;;;;;;;106.80;96.60;;;7.80;97.20;;;;;;5015745;28;20690;-88
2023/02/12 11:26:20;;;;;;;117.43;105.73;;;7.80;97.20;;;;;;5016897;28;20189;-88
2023/02/12 11:29:16;;;;;;;146.13;134.17;;;7.80;97.30;;;;;;4998612;28;20185;-88
2023/02/12 11:31:53;;;;;;;149.80;137.40;;;7.80;97.20;;;;;;5015133;28;20574;-87
2023/02/12 11:34:19;;;;;;;151.97;139.20;;;7.80;97.20;;;;;;5015705;28;20670;-87
2023/02/12 11:36:51;;;;;;;146.97;134.83;;;7.80;97.20;;;;;;5016764;28;20559;-88
2023/02/12 11:39:32;;;;;;;144.27;132.47;;;7.80;97.30;;;;;;5015810;28;20173;-87
2023/02/12 11:42:00;;;;;;;158.20;145.07;;;7.80;97.20;;;;;;5016511;28;20201;-89
2023/02/12 11:44:31;;;;;;;150.73;138.33;;;7.80;97.20;;;;;;5015299;28;20205;-87
2023/02/12 11:47:01;;;;;;;155.17;141.63;;;7.80;97.20;;;;;;5017031;28;20244;-87
2023/02/12 11:49:30;;;;;;;151.30;138.10;;;7.80;97.20;;;;;;5016504;28;20611;-87
2023/02/12 11:51:58;;;;;;;158.80;143.90;;;7.70;97.20;;;;;;5016363;28;20228;-88
2023/02/12 11:54:27;;;;;;;150.57;137.60;;;7.70;97.20;;;;;;5014802;28;20177;-87
2023/02/12 11:56:54;;;;;;;144.20;132.10;;;7.70;97.20;;;;;;5016639;28;20185;-88
2023/02/12 11:59:40;;;;;;;141.77;130.57;;;7.80;97.20;;;;;;5016468;28;20550;-88
2023/02/12 12:02:24;;;;;;;139.87;129.37;;;7.80;97.20;;;;;;5015115;28;20204;-87
2023/02/12 12:04:54;;;;;;;138.23;127.27;;;7.80;97.20;;;;;;5014952;28;20187;-87
2023/02/12 12:07:28;;;;;;;138.30;127.37;;;7.80;97.20;;;;;;5016307;28;20168;-87
2023/02/12 12:10:04;;;;;;;136.00;124.63;;;7.80;97.20;;;;;;5016208;28;20530;-85
2023/02/12 12:12:41;;;;;;;135.33;123.83;;;7.90;97.20;;;;;;5014367;28;20197;-88
2023/02/12 12:21:13;;;;;;;133.70;122.60;;;7.90;97.10;;;;;;5015936;28;20204;-87
2023/02/12 12:23:48;;;;;;;134.13;123.10;;;7.90;97.20;;;;;;5016397;28;20659;-87
2023/02/12 12:26:22;;;;;;;139.77;128.00;;;7.90;97.10;;;;;;5014560;28;20193;-91
2023/02/12 12:28:57;;;;;;;133.67;122.63;;;7.80;97.10;;;;;;5014263;28;20224;-87
2023/02/12 12:31:38;;;;;;;140.17;129.37;;;7.80;97.10;;;;;;5014097;28;20207;-88
2023/02/12 12:34:15;;;;;;;144.83;133.87;;;7.90;97.10;;;;;;5013889;28;20184;-87
2023/02/12 12:37:15;;;;;;;142.93;132.30;;;7.90;97.10;;;;;;5014249;28;20176;-87
2023/02/12 12:39:55;;;;;;;140.77;130.73;;;7.90;97.10;;;;;;5014273;28;20169;-87
2023/02/12 12:43:01;;;;;;;144.53;133.63;;;8.00;97.10;;;;;;5015119;28;20201;-87
2023/02/12 12:45:59;;;;;;;141.23;130.70;;;8.00;97.10;;;;;;5015642;28;20165;-87
2023/02/12 12:48:36;;;;;;;144.60;134.27;;;8.10;97.10;;;;;;5014248;28;20173;-87
2023/02/12 12:51:20;;;;;;;143.20;132.83;;;8.10;97.10;;;;;;5014229;28;20246;-87